createdAt,value
2022-10-28T00:02:05.405Z,97.10
2022-10-28T00:04:32.177Z,97.20
2022-10-28T00:06:58.812Z,96.70
2022-10-28T00:09:25.469Z,96.30
2022-10-28T00:11:52.180Z,96.60
2022-10-28T00:14:18.843Z,97.00
2022-10-28T00:16:45.488Z,99.10
2022-10-28T00:19:13.231Z,99.90
2022-10-28T00:21:41.556Z,99.90
2022-10-28T00:24:10.271Z,99.90
2022-10-28T00:26:38.645Z,99.90
2022-10-28T00:29:07.909Z,99.90
2022-10-28T00:31:35.673Z,99.90
2022-10-28T00:34:04.585Z,99.90
2022-10-28T00:36:34.371Z,99.70
2022-10-28T00:39:03.055Z,99.70
2022-10-28T00:41:36.089Z,99.90
2022-10-28T00:44:41.368Z,99.90
2022-10-28T00:47:29.663Z,99.90
2022-10-28T00:50:11.825Z,99.60
2022-10-28T00:52:40.115Z,99.80
2022-10-28T00:55:08.131Z,98.80
2022-10-28T00:57:37.538Z,99.30
2022-10-28T01:00:07.227Z,98.30
2022-10-28T01:02:44.905Z,98.10
2022-10-28T01:05:14.416Z,98.80
2022-10-28T01:07:41.410Z,98.30
2022-10-28T01:10:09.281Z,98.10
2022-10-28T01:12:52.615Z,98.60
2022-10-28T01:15:56.980Z,97.60
2022-10-28T01:18:50.548Z,96.70
2022-10-28T01:21:26.012Z,96.20
2022-10-28T01:24:16.999Z,96.90
2022-10-28T01:27:06.045Z,99.90
2022-10-28T01:29:45.860Z,98.90
2022-10-28T01:32:26.959Z,97.10
2022-10-28T01:35:09.344Z,98.50
2022-10-28T01:38:06.123Z,99.90
2022-10-28T01:40:42.172Z,97.90
2022-10-28T01:43:24.973Z,98.00
2022-10-28T01:46:21.034Z,98.10
2022-10-28T01:49:10.607Z,98.60
2022-10-28T01:51:48.569Z,99.90
2022-10-28T01:54:20.249Z,97.60
2022-10-28T01:56:48.253Z,98.00
2022-10-28T01:59:20.264Z,97.10
2022-10-28T02:01:47.107Z,97.50
2022-10-28T02:04:14.297Z,98.10
2022-10-28T02:06:43.901Z,98.70
2022-10-28T02:09:19.581Z,98.80
2022-10-28T02:11:55.345Z,98.90
2022-10-28T02:14:34.107Z,98.80
2022-10-28T02:17:21.995Z,98.50
2022-10-28T02:20:38.927Z,99.20
2022-10-28T02:23:39.615Z,99.30
2022-10-28T02:26:12.014Z,99.90
2022-10-28T02:28:47.503Z,99.90
2022-10-28T02:31:32.919Z,98.50
2022-10-28T02:34:05.694Z,99.60
2022-10-28T02:36:37.448Z,99.90
2022-10-28T02:39:05.990Z,99.90
2022-10-28T02:41:51.819Z,99.90
2022-10-28T02:44:26.064Z,99.90
2022-10-28T02:46:55.867Z,99.90
2022-10-28T02:49:25.051Z,99.90
2022-10-28T02:52:04.834Z,99.90
2022-10-28T02:54:38.155Z,99.90
2022-10-28T02:57:10.604Z,99.90
2022-10-28T02:59:37.250Z,99.90
2022-10-28T03:02:04.169Z,99.90
2022-10-28T03:04:30.971Z,99.00
2022-10-28T03:06:57.659Z,98.80
2022-10-28T03:09:24.353Z,98.70
2022-10-28T03:11:51.009Z,98.90
2022-10-28T03:14:17.646Z,98.30
2022-10-28T03:16:44.274Z,97.60
2022-10-28T03:19:10.914Z,97.70
2022-10-28T03:21:37.543Z,98.70
2022-10-28T03:24:04.451Z,99.90
2022-10-28T03:26:31.103Z,99.90
2022-10-28T03:28:57.719Z,99.90
2022-10-28T03:31:24.410Z,99.90
2022-10-28T03:33:51.049Z,99.90
2022-10-28T03:36:17.674Z,99.90
2022-10-28T03:38:44.292Z,99.90
2022-10-28T03:41:10.968Z,99.90
2022-10-28T03:43:37.586Z,99.90
2022-10-28T03:46:04.279Z,99.90
2022-10-28T03:48:30.930Z,99.50
2022-10-28T03:50:57.581Z,98.10
2022-10-28T03:53:27.592Z,97.60
2022-10-28T03:55:57.546Z,98.60
2022-10-28T03:58:24.762Z,99.90
2022-10-28T04:00:52.709Z,99.90
2022-10-28T04:03:21.558Z,99.20
2022-10-28T04:05:48.549Z,99.10
2022-10-28T04:08:16.512Z,99.90
2022-10-28T04:10:47.261Z,99.80
2022-10-28T04:13:15.498Z,99.90
2022-10-28T04:15:42.327Z,99.60
2022-10-28T04:18:09.129Z,98.70
2022-10-28T04:20:36.068Z,98.60
2022-10-28T04:23:03.339Z,98.30
2022-10-28T04:25:30.430Z,98.70
2022-10-28T04:27:57.273Z,99.00
2022-10-28T04:30:24.328Z,99.60
2022-10-28T04:32:51.097Z,99.70
2022-10-28T04:35:17.910Z,99.80
2022-10-28T04:37:44.768Z,99.90
2022-10-28T04:40:11.965Z,99.90
2022-10-28T04:42:38.639Z,99.90
2022-10-28T04:45:05.992Z,99.90
2022-10-28T04:47:32.852Z,99.90
2022-10-28T04:49:59.519Z,99.90
2022-10-28T04:52:26.250Z,99.90
2022-10-28T04:54:53.000Z,99.90
2022-10-28T04:57:19.722Z,99.90
2022-10-28T04:59:46.748Z,99.90
2022-10-28T05:02:13.691Z,99.90
2022-10-28T05:04:40.553Z,99.50
2022-10-28T05:07:07.407Z,99.90
2022-10-28T05:09:34.310Z,99.70
2022-10-28T05:12:01.072Z,99.40
2022-10-28T05:14:27.764Z,99.90
2022-10-28T05:16:54.444Z,99.90
2022-10-28T05:19:21.100Z,99.90
2022-10-28T05:21:47.735Z,99.90
2022-10-28T05:24:14.437Z,99.90
2022-10-28T05:26:41.119Z,99.90
2022-10-28T05:29:07.896Z,99.90
2022-10-28T05:31:34.590Z,99.90
2022-10-28T05:34:02.496Z,99.90
2022-10-28T05:36:29.205Z,99.90
2022-10-28T05:38:55.974Z,99.90
2022-10-28T05:41:23.385Z,99.90
2022-10-28T05:43:51.434Z,99.90
2022-10-28T05:46:18.161Z,99.90
2022-10-28T05:48:44.894Z,99.70
2022-10-28T05:51:11.612Z,99.60
2022-10-28T06:05:05.104Z,99.90
2022-10-28T06:07:31.843Z,99.90
2022-10-28T06:09:58.671Z,99.20
2022-10-28T06:12:27.007Z,99.10
2022-10-28T06:14:53.680Z,99.60
2022-10-28T06:17:20.354Z,99.90
2022-10-28T06:19:47.018Z,99.90
2022-10-28T06:22:13.719Z,99.90
2022-10-28T06:24:40.369Z,99.90
2022-10-28T06:27:07.186Z,99.90
2022-10-28T06:29:33.834Z,99.90
2022-10-28T06:32:00.546Z,99.90
2022-10-28T06:34:29.678Z,99.90
2022-10-28T06:36:56.465Z,99.90
2022-10-28T06:39:23.519Z,99.70
2022-10-28T06:41:50.457Z,99.50
2022-10-28T06:44:17.143Z,99.50
2022-10-28T06:46:45.332Z,99.30
2022-10-28T06:49:11.991Z,98.90
2022-10-28T06:51:38.615Z,98.80
2022-10-28T06:54:05.319Z,98.40
2022-10-28T06:56:32.028Z,98.80
2022-10-28T06:58:58.675Z,97.70
2022-10-28T07:01:25.416Z,97.40
2022-10-28T07:03:52.174Z,98.40
2022-10-28T07:06:18.845Z,97.20
2022-10-28T07:08:45.518Z,97.20
2022-10-28T07:11:12.329Z,97.00
2022-10-28T07:13:38.994Z,97.00
2022-10-28T07:16:05.857Z,97.00
2022-10-28T07:18:32.687Z,96.50
2022-10-28T07:21:02.325Z,95.90
2022-10-28T07:23:33.030Z,95.80
2022-10-28T07:25:59.868Z,95.20
2022-10-28T07:28:27.670Z,93.90
2022-10-28T07:30:54.811Z,93.80
2022-10-28T07:33:21.525Z,93.80
2022-10-28T07:35:48.213Z,92.40
2022-10-28T07:38:15.310Z,92.00
2022-10-28T07:40:41.946Z,91.30
2022-10-28T07:43:08.642Z,89.90
2022-10-28T07:45:36.221Z,90.20
2022-10-28T07:48:03.845Z,86.80
2022-10-28T07:50:30.727Z,83.70
2022-10-28T07:52:57.437Z,82.60
2022-10-28T07:55:26.116Z,81.70
2022-10-28T07:57:53.256Z,81.20
2022-10-28T08:00:20.264Z,77.40
2022-10-28T08:02:47.035Z,76.60
2022-10-28T08:05:13.679Z,74.90
2022-10-28T08:07:40.452Z,74.90
2022-10-28T08:10:08.053Z,75.20
2022-10-28T08:12:34.721Z,72.60
2022-10-28T08:15:02.612Z,74.10
2022-10-28T08:17:29.426Z,72.70
2022-10-28T08:19:56.061Z,71.30
2022-10-28T08:22:22.928Z,70.70
2022-10-28T08:24:49.603Z,70.90
2022-10-28T08:27:16.230Z,70.80
2022-10-28T08:29:42.863Z,70.20
2022-10-28T08:32:09.767Z,70.80
2022-10-28T08:34:39.284Z,70.20
2022-10-28T08:37:09.417Z,71.20
2022-10-28T08:39:36.147Z,70.60
2022-10-28T08:42:40.545Z,69.70
2022-10-28T08:45:33.289Z,69.60
2022-10-28T08:48:28.055Z,71.00
2022-10-28T08:51:14.205Z,70.30
2022-10-28T08:53:59.397Z,70.40
2022-10-28T08:56:31.643Z,69.00
2022-10-28T08:59:02.330Z,68.80
2022-10-28T09:02:14.946Z,68.50
2022-10-28T09:04:46.198Z,68.50
2022-10-28T09:07:17.775Z,69.00
2022-10-28T09:09:45.416Z,70.90
2022-10-28T09:12:32.250Z,69.50
2022-10-28T09:15:19.688Z,69.80
2022-10-28T09:17:57.046Z,70.50
2022-10-28T09:20:35.867Z,69.40
2022-10-28T09:23:37.114Z,70.20
2022-10-28T09:26:06.732Z,70.20
2022-10-28T09:28:55.020Z,71.30
2022-10-28T09:31:50.065Z,70.20
2022-10-28T09:34:26.425Z,69.20
2022-10-28T09:37:03.348Z,71.20
2022-10-28T09:39:40.440Z,68.40
2022-10-28T09:42:10.085Z,68.90
2022-10-28T09:44:43.213Z,71.30
2022-10-28T09:47:27.222Z,71.30
2022-10-28T09:49:58.946Z,70.90
2022-10-28T09:52:33.465Z,71.30
2022-10-28T09:55:15.810Z,70.60
2022-10-28T09:57:43.793Z,68.40
2022-10-28T10:00:13.791Z,69.20
2022-10-28T10:02:40.870Z,68.80
2022-10-28T10:05:20.669Z,70.00
2022-10-28T10:08:00.966Z,71.80
2022-10-28T10:10:45.397Z,70.20
2022-10-28T10:13:15.188Z,69.40
2022-10-28T10:15:53.730Z,70.30
2022-10-28T10:18:25.853Z,70.90
2022-10-28T10:20:55.857Z,70.50
2022-10-28T10:23:28.376Z,71.50
2022-10-28T10:26:04.460Z,70.70
2022-10-28T10:28:33.776Z,69.80
2022-10-28T10:31:04.318Z,70.40
2022-10-28T10:33:34.875Z,69.90
2022-10-28T10:36:12.143Z,69.40
2022-10-28T10:38:48.110Z,68.80
2022-10-28T10:41:40.037Z,69.60
2022-10-28T10:44:22.109Z,70.10
2022-10-28T10:47:13.305Z,69.10
2022-10-28T10:49:39.981Z,68.60
2022-10-28T10:52:28.384Z,69.30
2022-10-28T10:55:05.471Z,69.00
2022-10-28T10:57:33.316Z,69.40
2022-10-28T11:00:00.277Z,69.10
2022-10-28T11:02:39.260Z,68.10
2022-10-28T11:05:10.505Z,66.90
2022-10-28T11:07:40.376Z,67.80
2022-10-28T11:10:26.951Z,68.90
2022-10-28T11:12:59.768Z,69.60
2022-10-28T11:15:29.681Z,70.60
2022-10-28T11:18:11.424Z,71.80
2022-10-28T11:21:27.902Z,70.80
2022-10-28T11:24:06.839Z,69.80
2022-10-28T11:26:40.829Z,71.30
2022-10-28T11:29:11.425Z,72.00
2022-10-28T11:32:05.560Z,72.70
2022-10-28T11:34:37.958Z,71.70
2022-10-28T11:37:32.387Z,71.20
2022-10-28T11:40:30.823Z,70.90
2022-10-28T11:43:27.250Z,72.10
2022-10-28T11:46:16.362Z,72.70
2022-10-28T11:48:45.787Z,73.60
2022-10-28T11:51:25.060Z,73.50
2022-10-28T11:53:59.446Z,73.30
2022-10-28T11:56:39.435Z,74.50
2022-10-28T11:59:27.279Z,74.90
2022-10-28T12:02:19.164Z,75.00
2022-10-28T12:04:57.012Z,74.20
2022-10-28T12:07:41.697Z,73.60
2022-10-28T12:10:40.508Z,73.50
2022-10-28T12:13:25.902Z,74.70
2022-10-28T12:16:02.297Z,75.30
2022-10-28T12:18:51.369Z,73.80
2022-10-28T12:21:27.633Z,74.20
2022-10-28T12:23:58.149Z,73.70
2022-10-28T12:26:45.002Z,73.90
2022-10-28T12:29:20.793Z,74.20
2022-10-28T12:32:03.394Z,74.80
2022-10-28T12:34:38.022Z,75.00
2022-10-28T12:37:16.308Z,75.60
2022-10-28T12:39:58.769Z,76.20
2022-10-28T12:42:33.915Z,76.40
2022-10-28T12:45:04.701Z,76.40
2022-10-28T12:47:44.386Z,76.80
2022-10-28T12:50:42.833Z,76.80
2022-10-28T12:53:36.567Z,76.50
2022-10-28T12:56:07.770Z,77.60
2022-10-28T12:58:41.648Z,77.50
2022-10-28T13:01:15.485Z,78.00
2022-10-28T13:03:42.735Z,76.00
2022-10-28T13:06:30.995Z,77.60
2022-10-28T13:09:33.282Z,78.30
2022-10-28T13:12:45.026Z,78.70
2022-10-28T13:15:43.071Z,78.80
2022-10-28T13:18:45.928Z,78.50
2022-10-28T13:21:44.007Z,77.70
2022-10-28T13:24:36.980Z,77.30
2022-10-28T13:27:05.116Z,78.10
2022-10-28T13:29:34.742Z,78.60
2022-10-28T13:32:01.753Z,78.00
2022-10-28T13:34:39.223Z,78.30
2022-10-28T13:37:17.054Z,78.20
2022-10-28T13:39:47.557Z,78.60
2022-10-28T13:42:23.350Z,79.20
2022-10-28T13:44:53.619Z,79.20
2022-10-28T13:47:30.124Z,79.30
2022-10-28T13:50:05.866Z,79.60
2022-10-28T13:52:40.219Z,79.60
2022-10-28T13:55:26.694Z,79.70
2022-10-28T13:58:24.174Z,79.70
2022-10-28T14:00:53.360Z,80.00
2022-10-28T14:03:24.647Z,81.20
2022-10-28T14:05:54.334Z,80.90
2022-10-28T14:08:25.376Z,81.00
2022-10-28T14:11:05.697Z,81.30
2022-10-28T14:13:37.047Z,81.60
2022-10-28T14:16:24.962Z,81.90
2022-10-28T14:19:05.361Z,81.60
2022-10-28T14:22:02.454Z,82.10
2022-10-28T14:24:43.708Z,82.10
2022-10-28T14:27:15.207Z,82.10
2022-10-28T14:30:12.498Z,82.00
2022-10-28T14:32:51.177Z,82.40
2022-10-28T14:35:31.159Z,82.80
2022-10-28T14:38:43.315Z,82.70
2022-10-28T14:41:26.791Z,82.80
2022-10-28T14:44:34.978Z,82.50
2022-10-28T14:47:28.232Z,83.30
2022-10-28T14:50:14.477Z,82.40
2022-10-28T14:52:42.696Z,82.60
2022-10-28T14:55:20.291Z,82.80
2022-10-28T14:57:47.043Z,83.90
2022-10-28T15:00:18.587Z,84.30
2022-10-28T15:02:46.609Z,84.60
2022-10-28T15:05:20.437Z,84.50
2022-10-28T15:07:48.333Z,85.50
2022-10-28T15:10:29.073Z,85.20
2022-10-28T15:12:58.172Z,85.10
2022-10-28T15:15:30.745Z,85.70
2022-10-28T15:18:00.016Z,85.60
2022-10-28T15:20:29.885Z,85.40
2022-10-28T15:23:15.872Z,85.80
2022-10-28T15:25:42.530Z,85.70
2022-10-28T15:28:21.269Z,85.60
2022-10-28T15:30:47.933Z,85.70
2022-10-28T15:33:38.160Z,86.20
2022-10-28T15:36:18.555Z,86.40
2022-10-28T15:38:48.394Z,86.00
2022-10-28T15:41:30.563Z,85.70
2022-10-28T15:44:01.718Z,85.60
2022-10-28T15:46:29.865Z,85.00
2022-10-28T15:49:01.303Z,85.40
2022-10-28T15:51:28.273Z,85.50
2022-10-28T15:54:18.288Z,85.60
2022-10-28T15:56:55.963Z,85.30
2022-10-28T15:59:24.497Z,85.20
2022-10-28T16:01:51.531Z,85.00
2022-10-28T16:04:18.311Z,85.00
2022-10-28T16:06:46.085Z,85.00
2022-10-28T16:09:32.295Z,84.80
2022-10-28T16:12:03.714Z,84.60
2022-10-28T16:14:31.059Z,84.70
2022-10-28T16:17:28.784Z,84.60
2022-10-28T16:20:17.324Z,85.00
2022-10-28T16:22:46.513Z,85.00
2022-10-28T16:25:21.636Z,85.60
2022-10-28T16:27:49.707Z,86.20
2022-10-28T16:30:16.635Z,86.30
2022-10-28T16:32:48.690Z,86.70
2022-10-28T16:35:21.265Z,87.10
2022-10-28T16:37:53.755Z,87.30
2022-10-28T16:40:49.642Z,87.50
2022-10-28T16:43:19.704Z,88.20
2022-10-28T16:45:47.932Z,88.20
2022-10-28T16:48:16.215Z,88.40
2022-10-28T16:50:54.304Z,88.30
2022-10-28T16:53:21.919Z,88.30
2022-10-28T16:55:48.869Z,88.60
2022-10-28T16:58:15.979Z,88.80
2022-10-28T17:00:43.217Z,89.00
2022-10-28T17:03:16.859Z,89.40
2022-10-28T17:05:44.004Z,89.60
2022-10-28T17:08:11.864Z,89.50
2022-10-28T17:10:40.486Z,89.70
2022-10-28T17:13:15.158Z,89.50
2022-10-28T17:15:42.962Z,89.60
2022-10-28T17:18:12.117Z,89.20
2022-10-28T17:20:39.088Z,89.00
2022-10-28T17:23:06.504Z,88.70
2022-10-28T17:25:33.275Z,88.60
2022-10-28T17:28:00.028Z,89.40
2022-10-28T17:30:26.732Z,90.00
2022-10-28T17:32:54.451Z,90.30
2022-10-28T17:35:22.742Z,90.50
2022-10-28T17:37:50.237Z,90.80
2022-10-28T17:40:17.014Z,91.10
2022-10-28T17:42:43.747Z,91.00
2022-10-28T17:45:11.310Z,91.10
2022-10-28T17:47:38.021Z,91.30
2022-10-28T17:50:05.204Z,91.70
2022-10-28T17:52:35.685Z,91.60
2022-10-28T17:55:05.385Z,91.60
2022-10-28T17:57:32.126Z,91.40
2022-10-28T17:59:58.841Z,91.30
2022-10-28T18:02:25.962Z,91.30
2022-10-28T18:04:52.770Z,91.40
2022-10-28T18:07:19.666Z,91.30
2022-10-28T18:09:46.404Z,91.30
2022-10-28T18:12:13.218Z,90.90
2022-10-28T18:14:40.130Z,90.60
2022-10-28T18:17:06.794Z,90.20
2022-10-28T18:19:33.471Z,90.00
2022-10-28T18:22:00.203Z,90.00
2022-10-28T18:24:27.003Z,89.80
2022-10-28T18:26:55.238Z,89.20
2022-10-28T18:29:21.936Z,89.00
2022-10-28T18:31:48.683Z,89.00
2022-10-28T18:34:15.501Z,89.20
2022-10-28T18:36:42.290Z,89.50
2022-10-28T18:39:09.167Z,90.30
2022-10-28T18:41:41.448Z,90.20
2022-10-28T18:44:12.214Z,90.10
2022-10-28T18:46:39.027Z,90.30
2022-10-28T18:49:06.373Z,90.30
2022-10-28T18:51:33.707Z,90.20
2022-10-28T18:54:00.615Z,90.10
2022-10-28T18:56:33.999Z,90.10
2022-10-28T18:59:03.261Z,90.20
2022-10-28T19:01:31.702Z,90.10
2022-10-28T19:04:04.120Z,90.30
2022-10-28T19:06:33.275Z,90.30
2022-10-28T19:09:02.541Z,90.40
2022-10-28T19:11:31.179Z,90.50
2022-10-28T19:14:00.260Z,90.30
2022-10-28T19:16:31.597Z,90.00
2022-10-28T19:18:59.163Z,89.40
2022-10-28T19:21:27.599Z,89.00
2022-10-28T19:23:54.828Z,88.70
2022-10-28T19:26:22.832Z,88.60
2022-10-28T19:28:50.493Z,88.30
2022-10-28T19:31:20.533Z,87.50
2022-10-28T19:33:47.954Z,87.40
2022-10-28T19:36:20.793Z,87.60
2022-10-28T19:38:55.457Z,88.00
2022-10-28T19:41:24.514Z,87.90
2022-10-28T19:44:02.169Z,87.90
2022-10-28T19:46:34.110Z,88.10
2022-10-28T19:49:03.918Z,87.90
2022-10-28T19:51:32.802Z,88.20
2022-10-28T19:54:05.001Z,88.80
2022-10-28T19:56:34.162Z,89.80
2022-10-28T19:59:02.837Z,90.50
2022-10-28T20:01:32.497Z,91.00
2022-10-28T20:03:59.761Z,91.50
2022-10-28T20:06:30.799Z,91.90
2022-10-28T20:08:57.441Z,92.20
2022-10-28T20:11:32.923Z,92.40
2022-10-28T20:14:01.749Z,92.80
2022-10-28T20:16:31.384Z,92.80
2022-10-28T20:18:58.783Z,92.80
2022-10-28T20:21:28.213Z,92.90
2022-10-28T20:23:56.398Z,92.80
2022-10-28T20:26:25.066Z,93.00
2022-10-28T20:28:51.799Z,92.90
2022-10-28T20:31:24.042Z,93.30
2022-10-28T20:33:53.480Z,93.40
2022-10-28T20:36:33.787Z,93.50
2022-10-28T20:39:03.595Z,94.10
2022-10-28T20:41:32.826Z,94.20
2022-10-28T20:44:00.320Z,94.20
2022-10-28T20:46:28.336Z,93.90
2022-10-28T20:48:56.373Z,93.70
2022-10-28T20:51:25.128Z,93.50
2022-10-28T20:53:52.211Z,93.50
2022-10-28T20:56:24.299Z,93.50
2022-10-28T20:58:54.679Z,93.10
2022-10-28T21:01:22.911Z,92.80
2022-10-28T21:03:52.974Z,92.60
2022-10-28T21:06:20.471Z,92.60
2022-10-28T21:08:47.303Z,92.20
2022-10-28T21:11:15.399Z,92.10
2022-10-28T21:13:51.812Z,92.10
2022-10-28T21:16:19.619Z,91.90
2022-10-28T21:18:46.897Z,91.70
2022-10-28T21:21:14.137Z,91.40
2022-10-28T21:23:40.851Z,91.30
2022-10-28T21:26:08.476Z,91.50
2022-10-28T21:28:36.026Z,91.30
2022-10-28T21:31:07.221Z,91.30
2022-10-28T21:33:36.225Z,91.30
2022-10-28T21:36:06.074Z,91.40
2022-10-28T21:38:33.011Z,91.30
2022-10-28T21:41:20.127Z,91.30
2022-10-28T21:43:50.445Z,91.40
2022-10-28T21:46:21.856Z,91.80
2022-10-28T21:48:48.829Z,91.80
2022-10-28T21:51:16.831Z,92.10
2022-10-28T21:53:44.654Z,92.20
2022-10-28T21:56:19.259Z,92.40
2022-10-28T21:58:47.989Z,92.60
2022-10-28T22:01:18.320Z,92.30
2022-10-28T22:03:47.841Z,92.20
2022-10-28T22:06:15.075Z,92.00
2022-10-28T22:08:47.132Z,91.90
2022-10-28T22:11:18.175Z,91.80
2022-10-28T22:13:45.423Z,91.80
2022-10-28T22:16:17.187Z,91.70
2022-10-28T22:18:44.956Z,91.70
2022-10-28T22:21:18.147Z,91.40
2022-10-28T22:23:45.371Z,91.40
2022-10-28T22:26:15.085Z,91.30
2022-10-28T22:28:42.337Z,91.30
2022-10-28T22:31:14.472Z,91.50
2022-10-28T22:33:41.549Z,91.60
2022-10-28T22:36:11.032Z,91.70
2022-10-28T22:38:38.075Z,91.80
2022-10-28T22:41:06.468Z,91.70
2022-10-28T22:43:33.829Z,91.80
2022-10-28T22:46:01.050Z,92.20
2022-10-28T22:48:29.130Z,91.90
2022-10-28T22:50:56.087Z,91.90
2022-10-28T22:53:23.113Z,91.70
2022-10-28T22:55:50.549Z,91.80
2022-10-28T22:58:17.205Z,92.00
2022-10-28T23:00:44.462Z,91.70
2022-10-28T23:03:11.834Z,91.50
2022-10-28T23:05:39.230Z,91.70
2022-10-28T23:08:06.333Z,91.80
2022-10-28T23:10:33.633Z,92.10
2022-10-28T23:13:01.961Z,92.30
2022-10-28T23:15:29.936Z,92.30
2022-10-28T23:17:56.956Z,92.30
2022-10-28T23:20:25.375Z,92.20
2022-10-28T23:22:56.346Z,92.00
2022-10-28T23:25:22.983Z,91.90
2022-10-28T23:27:49.657Z,91.70
2022-10-28T23:30:16.478Z,92.10
2022-10-28T23:32:43.126Z,91.90
2022-10-28T23:35:09.847Z,92.00
2022-10-28T23:37:36.679Z,91.80
2022-10-28T23:40:03.775Z,91.60
2022-10-28T23:42:30.454Z,91.60
2022-10-28T23:44:57.142Z,91.70
2022-10-28T23:47:23.781Z,91.70
2022-10-28T23:49:50.444Z,91.80
2022-10-28T23:52:17.080Z,91.80
2022-10-28T23:54:43.751Z,91.60
2022-10-28T23:57:10.413Z,91.30
2022-10-28T23:59:37.093Z,91.30
